Time;durP1;ratioP1;P1;durP2;ratioP2;P2;SDS_P1;SDS_P2;PMS_P1;PMS_P2;Temp;Humidity;BMP_temperature;BMP_pressure;BME280_temperature;BME280_humidity;BME280_pressure;Samples;Min_cycle;Max_cycle;Signal;HPM_P1;HPM_P2
2021/07/25 00:00:12;;;;;;;41.08;26.77;;;17.30;99.90;;;;;;6301728;22;20003;-61
2021/07/25 00:02:37;;;;;;;44.05;25.05;;;17.30;99.90;;;;;;6302823;22;20152;-63
2021/07/25 00:05:06;;;;;;;44.60;25.42;;;17.30;99.90;;;;;;6303571;22;20343;-63
2021/07/25 00:07:31;;;;;;;36.13;25.40;;;17.40;99.90;;;;;;6304211;22;19999;-63
2021/07/25 00:09:57;;;;;;;38.70;25.85;;;17.40;99.90;;;;;;6304714;22;20117;-63
2021/07/25 00:12:23;;;;;;;38.88;26.98;;;17.30;99.90;;;;;;6303926;22;20014;-63
2021/07/25 00:14:48;;;;;;;50.42;27.45;;;17.30;99.90;;;;;;6302437;22;20419;-63
2021/07/25 00:17:14;;;;;;;46.38;26.90;;;17.30;99.90;;;;;;6304257;22;20488;-64
2021/07/25 00:19:39;;;;;;;49.55;27.33;;;17.40;99.90;;;;;;6303069;22;20007;-61
2021/07/25 00:22:06;;;;;;;48.53;28.95;;;17.30;99.90;;;;;;6302503;22;20056;-62
2021/07/25 00:24:35;;;;;;;60.65;29.52;;;17.30;99.90;;;;;;6303736;22;20329;-61
2021/07/25 00:27:01;;;;;;;45.05;29.77;;;17.30;99.90;;;;;;6302990;22;20030;-60
2021/07/25 00:29:31;;;;;;;54.08;28.52;;;17.20;99.90;;;;;;6303030;22;20007;-63
2021/07/25 00:32:01;;;;;;;42.88;26.75;;;17.20;99.90;;;;;;6306459;22;20007;-61
2021/07/25 00:34:31;;;;;;;47.95;29.77;;;17.20;99.90;;;;;;6303785;22;20102;-63
2021/07/25 00:36:57;;;;;;;40.75;27.02;;;17.30;99.90;;;;;;6302310;22;20438;-61
2021/07/25 00:39:23;;;;;;;46.45;29.02;;;17.30;99.90;;;;;;6301199;22;20014;-63
2021/07/25 00:41:49;;;;;;;46.45;31.00;;;17.40;99.90;;;;;;6302569;22;20330;-62
2021/07/25 00:44:14;;;;;;;41.85;26.13;;;17.30;99.90;;;;;;6303365;22;20010;-63
2021/07/25 00:46:40;;;;;;;43.90;28.45;;;17.30;99.90;;;;;;6301507;22;20011;-63
2021/07/25 00:49:06;;;;;;;44.28;26.98;;;17.30;99.90;;;;;;6304802;22;20393;-63
2021/07/25 00:51:33;;;;;;;46.10;26.73;;;17.40;99.90;;;;;;6301545;22;20004;-63
2021/07/25 00:53:59;;;;;;;45.65;25.70;;;17.40;99.90;;;;;;6303092;22;20038;-63
2021/07/25 00:56:25;;;;;;;48.72;27.13;;;17.30;99.90;;;;;;6303200;22;20007;-62
2021/07/25 00:58:50;;;;;;;46.72;27.58;;;17.30;99.90;;;;;;6304466;22;20010;-64
2021/07/25 01:01:20;;;;;;;48.03;29.35;;;17.30;99.90;;;;;;6303452;22;20397;-63
2021/07/25 01:04:05;;;;;;;42.60;26.42;;;17.30;99.90;;;;;;6302110;22;20011;-64
2021/07/25 01:06:57;;;;;;;47.08;25.20;;;17.40;99.90;;;;;;6302010;22;20003;-61
2021/07/25 01:09:48;;;;;;;38.72;23.58;;;17.40;99.90;;;;;;6301752;22;20080;-61
2021/07/25 01:12:18;;;;;;;49.00;26.55;;;17.40;99.90;;;;;;6290903;22;20008;-63
2021/07/25 01:14:47;;;;;;;45.97;25.92;;;17.40;99.90;;;;;;6302840;22;20125;-55
2021/07/25 01:17:28;;;;;;;40.60;24.65;;;17.40;99.90;;;;;;6303516;22;20709;-62
2021/07/25 01:19:55;;;;;;;46.22;26.05;;;17.40;99.90;;;;;;6298842;22;20011;-61
2021/07/25 01:22:21;;;;;;;45.80;27.05;;;17.30;99.90;;;;;;6305328;22;20049;-60
2021/07/25 01:24:47;;;;;;;48.75;26.17;;;17.40;99.90;;;;;;6301603;22;20423;-62
2021/07/25 01:27:36;;;;;;;43.63;25.95;;;17.40;99.90;;;;;;6301846;22;20397;-61
2021/07/25 01:30:04;;;;;;;46.58;26.48;;;17.40;99.90;;;;;;6224455;22;20004;-60
2021/07/25 01:32:30;;;;;;;45.55;26.23;;;17.40;99.90;;;;;;6301708;22;20002;-59
2021/07/25 01:34:58;;;;;;;43.33;24.98;;;17.40;99.90;;;;;;6301409;22;20011;-60
2021/07/25 01:37:26;;;;;;;39.67;24.08;;;17.40;99.90;;;;;;6301859;22;20014;-61
2021/07/25 01:39:52;;;;;;;39.50;23.90;;;17.40;99.90;;;;;;6301120;22;20002;-60
2021/07/25 01:42:31;;;;;;;41.78;23.38;;;17.40;99.90;;;;;;6302457;22;20006;-60
2021/07/25 01:44:59;;;;;;;38.63;22.83;;;17.40;99.90;;;;;;6301614;22;19995;-60
2021/07/25 01:47:25;;;;;;;38.35;22.05;;;17.50;99.90;;;;;;6302137;22;20369;-59
2021/07/25 01:49:50;;;;;;;37.38;23.05;;;17.40;99.90;;;;;;6303718;22;20000;-59
2021/07/25 01:52:16;;;;;;;37.35;24.42;;;17.30;99.90;;;;;;6305589;22;19999;-60
2021/07/25 01:54:43;;;;;;;37.70;22.48;;;17.30;99.90;;;;;;6305666;22;20049;-58
2021/07/25 01:57:09;;;;;;;46.63;25.35;;;17.20;99.90;;;;;;6303718;22;20372;-60
2021/07/25 01:59:34;;;;;;;38.33;22.88;;;17.20;99.90;;;;;;6301333;22;20086;-61
2021/07/25 02:02:00;;;;;;;37.20;22.98;;;17.20;99.90;;;;;;6301028;22;20013;-60
2021/07/25 02:04:26;;;;;;;37.67;22.77;;;17.10;99.90;;;;;;6301886;22;20088;-60
2021/07/25 02:06:51;;;;;;;36.95;22.65;;;17.10;99.90;;;;;;6300677;22;19999;-60
2021/07/25 02:09:17;;;;;;;36.25;20.30;;;17.10;99.90;;;;;;6300549;22;20383;-60
2021/07/25 02:11:42;;;;;;;44.28;22.08;;;17.00;99.90;;;;;;6301086;22;20078;-61
2021/07/25 02:14:08;;;;;;;39.30;20.83;;;17.00;99.90;;;;;;6301448;22;20003;-60
2021/07/25 02:16:34;;;;;;;33.35;19.65;;;17.00;99.90;;;;;;6300758;22;20446;-59
2021/07/25 02:19:00;;;;;;;31.08;19.58;;;17.00;99.90;;;;;;6300793;22;20021;-59
2021/07/25 02:21:26;;;;;;;35.13;19.33;;;17.00;99.90;;;;;;6300768;22;20023;-59
2021/07/25 02:23:51;;;;;;;25.73;17.85;;;17.10;99.90;;;;;;6300749;22;20035;-59
2021/07/25 02:26:17;;;;;;;32.33;18.23;;;17.00;99.90;;;;;;6300745;22;19999;-61
2021/07/25 02:28:43;;;;;;;29.63;17.40;;;17.00;99.90;;;;;;6301107;22;20000;-61
2021/07/25 02:31:08;;;;;;;26.15;16.75;;;17.00;99.90;;;;;;6301448;22;20048;-60
2021/07/25 02:33:34;;;;;;;26.23;17.23;;;16.90;99.90;;;;;;6301873;22;19999;-59
2021/07/25 02:35:59;;;;;;;25.38;16.08;;;16.90;99.90;;;;;;6305463;22;20057;-61
2021/07/25 02:38:25;;;;;;;26.85;16.95;;;16.90;99.90;;;;;;6302747;22;20454;-60
2021/07/25 02:40:50;;;;;;;29.83;16.95;;;16.80;99.90;;;;;;6301439;22;20358;-60
2021/07/25 02:43:16;;;;;;;30.65;18.08;;;16.80;99.90;;;;;;6300848;22;20334;-61
2021/07/25 02:45:41;;;;;;;29.90;16.67;;;16.80;99.90;;;;;;6301575;22;20523;-60
2021/07/25 02:48:07;;;;;;;27.40;16.30;;;16.80;99.90;;;;;;6273217;22;20452;-61
2021/07/25 02:50:32;;;;;;;25.50;16.08;;;16.70;99.90;;;;;;6301339;22;20055;-61
2021/07/25 02:52:58;;;;;;;25.23;16.48;;;16.70;99.90;;;;;;6300996;22;20057;-60
2021/07/25 02:55:24;;;;;;;28.48;16.23;;;16.60;99.90;;;;;;6300794;22;20449;-61
2021/07/25 02:57:49;;;;;;;31.05;16.63;;;16.50;99.90;;;;;;6301630;22;19992;-60
2021/07/25 03:00:15;;;;;;;22.63;15.68;;;16.50;99.90;;;;;;6302025;22;20052;-60
2021/07/25 03:02:41;;;;;;;26.08;15.43;;;16.50;99.90;;;;;;6301687;22;20011;-59
2021/07/25 03:05:07;;;;;;;29.48;16.30;;;16.40;99.90;;;;;;6300590;22;20346;-61
2021/07/25 03:07:33;;;;;;;29.48;16.52;;;16.40;99.90;;;;;;6300826;22;20011;-61
2021/07/25 03:09:58;;;;;;;22.02;15.57;;;16.30;99.90;;;;;;6300868;22;20484;-60
2021/07/25 03:12:24;;;;;;;27.92;15.32;;;16.30;99.90;;;;;;6300690;22;19999;-60
2021/07/25 03:14:49;;;;;;;29.83;15.05;;;16.20;99.90;;;;;;6300568;22;20003;-60
2021/07/25 03:17:15;;;;;;;31.80;16.45;;;16.30;99.90;;;;;;6301920;22;20442;-60
2021/07/25 03:19:41;;;;;;;32.08;16.52;;;16.30;99.90;;;;;;6300601;22;20064;-60
2021/07/25 03:22:09;;;;;;;25.55;14.07;;;16.20;99.90;;;;;;6304876;22;20068;-59
2021/07/25 03:24:35;;;;;;;27.17;13.65;;;16.10;99.90;;;;;;6301020;22;20003;-59
2021/07/25 03:27:00;;;;;;;18.38;13.10;;;16.10;99.90;;;;;;6300279;22;20482;-59
2021/07/25 03:29:26;;;;;;;23.95;13.13;;;16.10;99.90;;;;;;6300712;22;20007;-61
2021/07/25 03:31:52;;;;;;;23.08;13.68;;;16.20;99.90;;;;;;6301874;22;20385;-61
2021/07/25 03:34:17;;;;;;;26.50;14.18;;;16.20;99.90;;;;;;6301308;22;20127;-61
2021/07/25 03:36:43;;;;;;;20.20;13.43;;;16.10;99.90;;;;;;6302281;22;20419;-60
2021/07/25 03:39:13;;;;;;;32.03;14.77;;;16.10;99.90;;;;;;6302524;22;20003;-60
2021/07/25 03:41:39;;;;;;;20.58;12.27;;;16.10;99.90;;;;;;6303191;22;20011;-58
2021/07/25 03:44:04;;;;;;;25.48;14.13;;;16.10;99.90;;;;;;6305908;22;20072;-61
2021/07/25 03:46:30;;;;;;;27.58;15.70;;;16.00;99.90;;;;;;6305983;22;20423;-60
2021/07/25 03:48:56;;;;;;;27.63;14.73;;;16.00;99.90;;;;;;6302527;22;20435;-59
2021/07/25 03:51:22;;;;;;;26.77;15.00;;;15.90;99.90;;;;;;6302197;22;20045;-58
2021/07/25 03:53:48;;;;;;;34.22;14.98;;;15.90;99.90;;;;;;6303604;22;20382;-59
2021/07/25 03:56:13;;;;;;;22.05;14.57;;;15.80;99.90;;;;;;6301984;22;20457;-59
2021/07/25 03:58:39;;;;;;;28.15;16.40;;;15.70;99.90;;;;;;6303035;22;20030;-59
2021/07/25 04:01:04;;;;;;;27.08;15.30;;;15.70;99.90;;;;;;6302481;22;20010;-58
2021/07/25 04:03:30;;;;;;;32.55;15.75;;;15.60;99.90;;;;;;6303106;22;20389;-60
2021/07/25 04:05:55;;;;;;;23.95;15.63;;;15.60;99.90;;;;;;6301695;22;20383;-60
2021/07/25 04:08:21;;;;;;;24.00;14.85;;;15.60;99.90;;;;;;6276248;22;20338;-60
2021/07/25 04:10:46;;;;;;;23.13;15.23;;;15.60;99.90;;;;;;6302359;22;20074;-60
2021/07/25 04:13:12;;;;;;;31.70;15.50;;;15.60;99.90;;;;;;6302520;22;20415;-60
2021/07/25 04:15:43;;;;;;;24.30;15.77;;;15.60;99.90;;;;;;6301744;22;20006;-60
2021/07/25 04:18:09;;;;;;;29.70;17.17;;;15.60;99.90;;;;;;6303377;22;20003;-60
2021/07/25 04:20:35;;;;;;;26.98;15.68;;;15.60;99.90;;;;;;6301746;22;20095;-61
2021/07/25 04:23:02;;;;;;;28.35;16.60;;;15.60;99.90;;;;;;6303188;22;20383;-60
2021/07/25 04:25:29;;;;;;;29.05;17.80;;;15.60;99.90;;;;;;6302261;22;20327;-60
2021/07/25 04:27:56;;;;;;;28.10;16.45;;;15.70;99.90;;;;;;6303828;22;20022;-60
2021/07/25 04:30:22;;;;;;;32.00;17.38;;;15.70;99.90;;;;;;6302798;22;20074;-59
2021/07/25 04:32:48;;;;;;;29.77;17.83;;;15.70;99.90;;;;;;6302390;22;19995;-60
2021/07/25 04:35:16;;;;;;;34.17;18.27;;;15.70;99.90;;;;;;6303850;22;20003;-61
2021/07/25 04:37:47;;;;;;;26.50;17.13;;;15.70;99.90;;;;;;6303373;22;20340;-61
2021/07/25 04:40:14;;;;;;;33.67;17.80;;;15.80;99.90;;;;;;6301957;22;20011;-60
2021/07/25 04:42:45;;;;;;;35.00;17.92;;;15.80;99.90;;;;;;6301706;22;20007;-60
2021/07/25 04:45:15;;;;;;;30.80;17.33;;;15.80;99.90;;;;;;6301269;22;20003;-59
2021/07/25 04:47:48;;;;;;;30.98;17.20;;;15.80;99.90;;;;;;6302304;22;20007;-58
2021/07/25 04:50:16;;;;;;;31.67;20.75;;;15.80;99.90;;;;;;6305598;22;20472;-60
2021/07/25 04:52:43;;;;;;;32.15;19.35;;;15.90;99.90;;;;;;6306256;22;20296;-58
2021/07/25 04:55:11;;;;;;;35.17;19.83;;;15.90;99.90;;;;;;6304670;22;20064;-60
2021/07/25 04:57:40;;;;;;;41.97;21.38;;;16.00;99.90;;;;;;6303005;22;20007;-58
2021/07/25 05:00:06;;;;;;;51.60;21.83;;;16.00;99.90;;;;;;6301903;22;20478;-60
2021/07/25 05:02:36;;;;;;;37.88;21.52;;;16.00;99.90;;;;;;6302208;22;20091;-60
2021/07/25 05:05:02;;;;;;;33.53;21.90;;;16.10;99.90;;;;;;6303274;22;20006;-60
2021/07/25 05:07:35;;;;;;;48.13;25.77;;;16.10;99.90;;;;;;6301876;22;20419;-59
2021/07/25 05:10:01;;;;;;;40.22;22.85;;;16.10;99.90;;;;;;6301916;22;20338;-61
2021/07/25 05:12:32;;;;;;;41.97;23.77;;;16.20;99.90;;;;;;6301236;22;20074;-60
2021/07/25 05:15:05;;;;;;;40.63;23.67;;;16.20;99.90;;;;;;6301572;22;20082;-60
2021/07/25 05:18:04;;;;;;;45.05;23.92;;;16.30;99.90;;;;;;6301360;22;20010;-60
2021/07/25 05:20:47;;;;;;;44.47;23.98;;;16.40;99.90;;;;;;6302547;22;20011;-57
2021/07/25 05:23:17;;;;;;;39.55;24.98;;;16.40;99.90;;;;;;6301254;22;20069;-62
2021/07/25 05:25:48;;;;;;;46.50;26.10;;;16.50;99.90;;;;;;6301640;22;20070;-59
2021/07/25 05:28:15;;;;;;;43.50;25.30;;;16.50;99.90;;;;;;6302089;22;20010;-61
2021/07/25 05:30:43;;;;;;;47.10;25.92;;;16.50;99.90;;;;;;6301602;22;20038;-61
2021/07/25 05:33:10;;;;;;;50.13;27.27;;;16.60;99.90;;;;;;6301319;22;20030;-59
2021/07/25 05:35:36;;;;;;;45.80;28.35;;;16.70;99.90;;;;;;6302241;22;20004;-61
2021/07/25 05:38:02;;;;;;;46.22;26.55;;;16.70;99.90;;;;;;6301684;22;20009;-60
2021/07/25 05:40:28;;;;;;;41.40;26.88;;;16.80;99.90;;;;;;6300635;22;20019;-60
2021/07/25 05:42:53;;;;;;;46.50;28.20;;;16.80;99.90;;;;;;6301499;22;20386;-61
2021/07/25 05:45:19;;;;;;;44.17;28.02;;;16.90;99.90;;;;;;6300329;22;20018;-61
2021/07/25 05:47:44;;;;;;;49.90;26.75;;;16.90;99.90;;;;;;6300924;22;20082;-59
2021/07/25 05:50:10;;;;;;;47.63;26.48;;;17.00;99.90;;;;;;6300788;22;20003;-60
2021/07/25 05:52:53;;;;;;;51.67;26.95;;;17.10;99.90;;;;;;6301960;22;20495;-61
2021/07/25 05:55:33;;;;;;;41.50;27.20;;;17.10;99.90;;;;;;6300607;22;20514;-61
2021/07/25 05:58:00;;;;;;;43.90;25.88;;;17.20;99.90;;;;;;6301181;22;20439;-58
2021/07/25 06:00:26;;;;;;;47.67;26.10;;;17.20;99.90;;;;;;6301468;22;20003;-62
2021/07/25 06:03:00;;;;;;;42.47;25.50;;;17.30;99.90;;;;;;6300838;22;19995;-61
2021/07/25 06:05:29;;;;;;;40.90;25.25;;;17.30;99.90;;;;;;6300735;22;20002;-61
2021/07/25 06:07:56;;;;;;;45.35;23.77;;;17.40;99.90;;;;;;6302074;22;20029;-61
2021/07/25 06:10:23;;;;;;;40.58;24.80;;;17.50;99.90;;;;;;6300624;22;20071;-61
2021/07/25 06:12:51;;;;;;;50.63;24.33;;;17.60;99.90;;;;;;6301492;22;19999;-60
2021/07/25 06:15:16;;;;;;;42.15;22.67;;;17.60;99.90;;;;;;6301356;22;20004;-61
2021/07/25 06:17:43;;;;;;;35.78;21.38;;;17.70;99.90;;;;;;6305467;22;20468;-58
2021/07/25 06:20:09;;;;;;;34.72;21.17;;;17.70;99.90;;;;;;6302500;22;20090;-61
2021/07/25 06:22:42;;;;;;;30.48;19.23;;;17.80;99.90;;;;;;6301537;22;20077;-60
2021/07/25 06:25:08;;;;;;;28.95;18.35;;;17.90;99.90;;;;;;6300442;22;20435;-60
2021/07/25 06:27:34;;;;;;;30.38;18.45;;;17.90;99.90;;;;;;6300371;22;19999;-61
2021/07/25 06:30:00;;;;;;;33.95;17.20;;;18.00;99.90;;;;;;6301709;22;20007;-61
2021/07/25 06:32:25;;;;;;;23.23;11.38;;;18.00;99.90;;;;;;6300529;22;20316;-60
2021/07/25 06:34:51;;;;;;;15.55;9.43;;;18.10;99.90;;;;;;6300570;22;20037;-61
2021/07/25 06:37:16;;;;;;;11.02;6.72;;;18.20;99.90;;;;;;6301190;22;20080;-59
2021/07/25 06:39:42;;;;;;;15.73;7.25;;;18.20;99.90;;;;;;6304684;22;20510;-60
2021/07/25 06:42:08;;;;;;;11.80;6.68;;;18.20;99.90;;;;;;6300559;22;20038;-60
2021/07/25 06:44:34;;;;;;;12.60;6.07;;;18.30;99.90;;;;;;6300520;22;20079;-62
2021/07/25 06:46:59;;;;;;;14.93;6.95;;;18.40;99.90;;;;;;6300622;22;20044;-61
2021/07/25 06:49:25;;;;;;;12.02;7.20;;;18.40;99.90;;;;;;6300871;22;20054;-61
2021/07/25 06:51:50;;;;;;;11.55;7.80;;;18.50;99.90;;;;;;6301037;22;20338;-61
2021/07/25 06:54:16;;;;;;;15.80;7.90;;;18.60;99.90;;;;;;6301881;22;20342;-62
2021/07/25 06:56:41;;;;;;;13.38;8.82;;;18.70;99.90;;;;;;6300347;22;20010;-60
2021/07/25 06:59:07;;;;;;;16.92;8.20;;;18.70;99.90;;;;;;6302218;22;19999;-62
2021/07/25 07:01:32;;;;;;;12.77;8.32;;;18.80;99.90;;;;;;6300601;22;20391;-61
2021/07/25 07:03:58;;;;;;;13.02;7.75;;;18.90;99.90;;;;;;6301351;22;20377;-61
2021/07/25 07:06:23;;;;;;;13.02;7.00;;;18.90;99.90;;;;;;6299936;22;20415;-60
2021/07/25 07:08:49;;;;;;;14.85;6.95;;;19.00;99.90;;;;;;6302617;22;19995;-60
2021/07/25 07:11:14;;;;;;;13.98;7.15;;;19.10;99.90;;;;;;6302938;22;20007;-59
2021/07/25 07:13:40;;;;;;;14.65;7.05;;;19.10;99.90;;;;;;6302811;22;20004;-58
2021/07/25 07:16:05;;;;;;;10.73;6.35;;;19.20;99.90;;;;;;6302277;22;20082;-60
2021/07/25 07:18:31;;;;;;;13.90;5.70;;;19.30;99.90;;;;;;6302570;22;20004;-58
2021/07/25 07:20:57;;;;;;;14.07;6.03;;;19.30;99.90;;;;;;6303107;22;20011;-63
2021/07/25 07:23:24;;;;;;;10.70;6.07;;;19.40;99.90;;;;;;6304732;22;20419;-63
2021/07/25 07:25:51;;;;;;;10.05;5.95;;;19.40;99.90;;;;;;6302978;22;20014;-64
2021/07/25 07:28:20;;;;;;;12.90;6.75;;;19.50;99.90;;;;;;6302968;22;20082;-64
2021/07/25 07:30:48;;;;;;;13.95;6.35;;;19.50;99.90;;;;;;6302613;22;20071;-63
2021/07/25 07:33:16;;;;;;;11.23;5.68;;;19.60;99.90;;;;;;6302286;22;20014;-64
2021/07/25 07:35:42;;;;;;;14.40;6.18;;;19.60;99.90;;;;;;6302027;22;19999;-62
2021/07/25 07:38:09;;;;;;;11.18;5.97;;;19.70;99.90;;;;;;6302742;22;20094;-64
2021/07/25 07:40:36;;;;;;;8.88;5.20;;;19.70;99.90;;;;;;6302589;22;20000;-64
2021/07/25 07:43:02;;;;;;;8.18;4.05;;;19.80;99.90;;;;;;6302957;22;20070;-63
2021/07/25 07:45:28;;;;;;;10.65;5.10;;;19.90;99.90;;;;;;6303589;22;19999;-63
2021/07/25 07:47:54;;;;;;;14.60;6.25;;;19.90;99.90;;;;;;6302405;22;20007;-64
2021/07/25 07:50:20;;;;;;;15.25;6.03;;;20.00;99.90;;;;;;6301871;22;20003;-63
2021/07/25 07:52:46;;;;;;;14.75;6.13;;;20.10;99.90;;;;;;6302705;22;19996;-60
2021/07/25 07:55:12;;;;;;;13.35;6.60;;;20.10;99.90;;;;;;6303308;22;20125;-63
2021/07/25 07:57:38;;;;;;;11.93;6.30;;;20.20;99.90;;;;;;6303715;22;20046;-63
2021/07/25 08:00:08;;;;;;;11.93;7.22;;;20.20;99.90;;;;;;6304527;22;20052;-62
2021/07/25 08:02:35;;;;;;;16.67;7.18;;;20.30;99.90;;;;;;6305373;22;20076;-63
2021/07/25 08:05:01;;;;;;;17.77;8.25;;;20.40;99.90;;;;;;6301910;22;20365;-63
2021/07/25 08:07:27;;;;;;;15.82;7.88;;;20.50;99.90;;;;;;6302691;22;20010;-63
2021/07/25 08:09:53;;;;;;;13.02;6.47;;;20.60;99.90;;;;;;6302250;22;20030;-64
2021/07/25 08:12:18;;;;;;;11.27;6.85;;;20.70;99.90;;;;;;6302664;22;20496;-63
2021/07/25 08:14:44;;;;;;;8.05;5.10;;;20.70;99.90;;;;;;6302012;22;20002;-64
2021/07/25 08:17:10;;;;;;;10.25;5.13;;;20.80;99.90;;;;;;6302159;22;20018;-64
2021/07/25 08:19:35;;;;;;;8.60;5.55;;;20.90;99.90;;;;;;6301891;22;20010;-64
2021/07/25 08:22:02;;;;;;;11.07;5.72;;;20.90;99.90;;;;;;6301969;22;20014;-64
2021/07/25 08:24:28;;;;;;;12.13;5.05;;;21.00;99.90;;;;;;6305407;22;19999;-64
2021/07/25 08:26:54;;;;;;;7.82;4.90;;;21.00;99.90;;;;;;6301336;22;20003;-62
2021/07/25 08:29:19;;;;;;;9.02;4.75;;;21.10;99.90;;;;;;6302125;22;20446;-62
2021/07/25 08:31:45;;;;;;;14.45;4.35;;;21.20;99.90;;;;;;6302052;22;20423;-63
2021/07/25 08:34:10;;;;;;;8.48;4.57;;;21.30;99.90;;;;;;6301491;22;20055;-59
2021/07/25 08:36:36;;;;;;;8.38;3.88;;;21.30;99.90;;;;;;6301361;22;20018;-60
2021/07/25 08:39:02;;;;;;;6.57;4.10;;;21.40;99.90;;;;;;6301807;22;19999;-61
2021/07/25 08:41:52;;;;;;;15.55;4.45;;;21.40;99.90;;;;;;6304176;22;20006;-60
2021/07/25 08:44:55;;;;;;;11.75;4.82;;;21.50;99.90;;;;;;6302160;22;20144;-63
2021/07/25 08:47:32;;;;;;;9.13;5.00;;;21.70;99.90;;;;;;6301083;22;20014;-60
2021/07/25 08:50:27;;;;;;;8.00;4.15;;;21.70;99.90;;;;;;6300919;22;20055;-61
2021/07/25 08:52:54;;;;;;;8.07;3.70;;;21.90;99.90;;;;;;6295805;22;20086;-59
2021/07/25 08:55:21;;;;;;;7.07;3.97;;;21.90;99.90;;;;;;6301993;22;20030;-61
2021/07/25 08:57:48;;;;;;;7.30;3.85;;;22.00;99.90;;;;;;6304056;22;20086;-62
2021/07/25 09:00:20;;;;;;;9.95;4.93;;;22.00;99.90;;;;;;6303358;22;20011;-63
2021/07/25 09:02:48;;;;;;;9.75;5.20;;;22.10;99.90;;;;;;6301470;22;20080;-62
2021/07/25 09:05:14;;;;;;;7.40;3.90;;;22.20;99.90;;;;;;6300603;22;20014;-59
2021/07/25 09:07:41;;;;;;;8.55;3.88;;;22.20;99.90;;;;;;6303056;22;20327;-61
2021/07/25 09:10:08;;;;;;;6.85;3.65;;;22.30;99.90;;;;;;6305844;22;20037;-61
2021/07/25 09:12:35;;;;;;;8.00;4.35;;;22.40;99.90;;;;;;6303706;22;19995;-61
2021/07/25 09:15:10;;;;;;;5.95;3.38;;;22.60;99.90;;;;;;6304974;22;20335;-59
2021/07/25 09:17:36;;;;;;;5.68;3.53;;;22.70;99.90;;;;;;6304558;22;20085;-61
2021/07/25 09:20:12;;;;;;;8.43;3.65;;;22.70;99.90;;;;;;6304877;22;20395;-65
2021/07/25 09:22:48;;;;;;;6.65;3.63;;;22.90;99.90;;;;;;6304777;22;20014;-61
2021/07/25 09:25:41;;;;;;;8.15;3.90;;;23.10;99.90;;;;;;6305171;22;20466;-62
2021/07/25 09:28:07;;;;;;;6.60;3.92;;;23.40;99.90;;;;;;6304840;22;20414;-61
2021/07/25 09:30:34;;;;;;;7.80;3.63;;;23.70;99.90;;;;;;6305686;22;20381;-61
2021/07/25 09:33:00;;;;;;;11.68;3.72;;;23.70;99.90;;;;;;6305052;22;20002;-59
2021/07/25 09:35:35;;;;;;;5.85;3.05;;;23.90;99.90;;;;;;6305148;22;19996;-62
2021/07/25 09:38:03;;;;;;;7.00;3.45;;;24.10;99.90;;;;;;6303788;22;20000;-62
2021/07/25 09:40:32;;;;;;;5.97;3.88;;;24.10;99.90;;;;;;6303894;22;20078;-63
2021/07/25 09:43:08;;;;;;;9.68;4.30;;;24.00;99.90;;;;;;6301823;22;20460;-61
2021/07/25 09:45:55;;;;;;;11.63;3.72;;;23.80;99.90;;;;;;6300252;22;20033;-61
2021/07/25 09:48:29;;;;;;;7.68;3.63;;;23.60;99.90;;;;;;6300846;22;20522;-61
2021/07/25 09:50:58;;;;;;;;;;;23.50;99.90;;;;;;6300914;22;20347;-64
2021/07/25 09:53:39;;;;;;;10.27;4.10;;;23.40;99.90;;;;;;6300638;22;19898;-61
2021/07/25 09:56:20;;;;;;;11.23;4.32;;;23.30;99.90;;;;;;6300041;22;20060;-64
2021/07/25 09:58:46;;;;;;;8.40;3.90;;;23.20;99.90;;;;;;6301806;22;20010;-65
2021/07/25 10:01:38;;;;;;;6.93;3.60;;;23.20;99.90;;;;;;6272907;22;20312;-63
2021/07/25 10:04:15;;;;;;;6.80;3.40;;;23.20;99.90;;;;;;6287247;22;20077;-61
2021/07/25 10:06:43;;;;;;;9.50;3.65;;;23.10;99.90;;;;;;6300045;22;20004;-63
2021/07/25 10:09:10;;;;;;;7.80;3.72;;;22.90;99.90;;;;;;6300576;22;20427;-62
2021/07/25 10:11:39;;;;;;;8.50;4.03;;;22.90;99.90;;;;;;6300145;22;19995;-65
2021/07/25 10:14:04;;;;;;;7.63;4.03;;;22.80;99.90;;;;;;6301972;22;20008;-62
2021/07/25 10:16:30;;;;;;;7.45;4.03;;;22.70;99.90;;;;;;6301283;22;20343;-65
2021/07/25 10:18:58;;;;;;;9.07;4.65;;;22.60;99.90;;;;;;6300072;22;20003;-64
2021/07/25 10:21:25;;;;;;;4.03;3.05;;;22.70;99.90;;;;;;6301219;22;20035;-61
2021/07/25 10:23:55;;;;;;;5.93;3.20;;;23.10;99.90;;;;;;6301029;22;20008;-65
2021/07/25 10:26:25;;;;;;;7.05;3.38;;;23.70;99.90;;;;;;6300277;22;20106;-62
2021/07/25 10:28:56;;;;;;;5.18;3.13;;;24.30;99.90;;;;;;6273284;22;20010;-65
2021/07/25 10:31:23;;;;;;;8.38;3.75;;;24.80;99.90;;;;;;6299967;22;20030;-63
2021/07/25 10:33:50;;;;;;;6.82;3.33;;;25.20;99.90;;;;;;6304939;22;19995;-64
2021/07/25 10:36:17;;;;;;;6.25;3.75;;;25.20;99.90;;;;;;6303350;22;20003;-64
2021/07/25 10:38:45;;;;;;;7.32;3.55;;;25.40;99.90;;;;;;6301955;22;20015;-65
2021/07/25 10:41:13;;;;;;;8.00;3.40;;;25.50;99.90;;;;;;6300544;22;20010;-63
2021/07/25 10:43:39;;;;;;;6.43;3.40;;;25.20;99.90;;;;;;6302411;22;20035;-62
2021/07/25 10:46:14;;;;;;;7.47;2.90;;;25.10;99.90;;;;;;6301816;22;20007;-61
2021/07/25 10:48:58;;;;;;;5.80;2.78;;;25.30;99.90;;;;;;6303052;22;20007;-62
2021/07/25 10:51:24;;;;;;;22.42;3.67;;;25.40;99.90;;;;;;6302709;22;20002;-57
2021/07/25 10:53:50;;;;;;;7.65;2.83;;;25.30;99.90;;;;;;6302934;22;19999;-63
2021/07/25 10:56:15;;;;;;;10.73;3.33;;;25.10;99.90;;;;;;6301288;22;20014;-62
2021/07/25 10:58:54;;;;;;;17.33;3.88;;;25.10;99.90;;;;;;6302067;22;20030;-62
2021/07/25 11:01:42;;;;;;;5.85;2.60;;;24.90;99.90;;;;;;6302551;22;20021;-65
2021/07/25 11:04:07;;;;;;;7.10;3.85;;;24.80;99.90;;;;;;6301571;22;20376;-62
2021/07/25 11:06:33;;;;;;;8.45;3.95;;;24.80;99.90;;;;;;6302950;22;20086;-61
2021/07/25 11:08:58;;;;;;;11.02;4.57;;;25.20;99.90;;;;;;6302448;22;20015;-65
2021/07/25 11:11:29;;;;;;;10.50;4.25;;;25.40;99.90;;;;;;6301286;22;20010;-62
2021/07/25 11:13:55;;;;;;;5.70;3.85;;;25.70;99.90;;;;;;6302012;22;20435;-63
2021/07/25 11:16:30;;;;;;;9.25;4.22;;;25.80;99.90;;;;;;6301814;22;20011;-61
2021/07/25 11:19:06;;;;;;;6.63;3.92;;;25.60;99.90;;;;;;6301951;22;20014;-63
2021/07/25 11:21:39;;;;;;;8.80;4.90;;;25.30;99.90;;;;;;6301570;22;20409;-61
2021/07/25 11:24:34;;;;;;;8.85;5.35;;;25.20;99.90;;;;;;6302546;22;20022;-63
2021/07/25 11:27:03;;;;;;;9.40;3.38;;;25.10;99.90;;;;;;6297036;22;20007;-63
2021/07/25 11:29:32;;;;;;;6.50;3.47;;;24.90;99.90;;;;;;6301584;22;20441;-63
2021/07/25 11:31:58;;;;;;;5.93;3.25;;;24.70;99.90;;;;;;6297096;22;20346;-64
2021/07/25 11:34:28;;;;;;;6.40;3.55;;;24.50;99.90;;;;;;6298769;22;20007;-61
2021/07/25 11:36:55;;;;;;;8.70;4.80;;;24.30;99.90;;;;;;6297947;22;20003;-62
2021/07/25 11:39:21;;;;;;;6.55;3.75;;;24.30;99.90;;;;;;6272029;22;20125;-62
2021/07/25 11:41:47;;;;;;;5.90;3.50;;;24.60;99.90;;;;;;6298390;22;20027;-61
2021/07/25 11:44:14;;;;;;;13.30;4.05;;;25.20;99.90;;;;;;6297389;22;20494;-65
2021/07/25 11:46:47;;;;;;;8.98;4.10;;;25.80;99.90;;;;;;6301696;22;20442;-62
2021/07/25 11:49:21;;;;;;;7.60;2.97;;;26.20;99.90;;;;;;6301654;22;20004;-63
2021/07/25 11:52:00;;;;;;;8.52;3.33;;;26.50;99.90;;;;;;6304850;22;19999;-63
2021/07/25 11:54:28;;;;;;;6.82;2.88;;;26.80;99.90;;;;;;6301149;22;20010;-61
2021/07/25 11:56:58;;;;;;;10.23;3.50;;;27.20;99.90;;;;;;6300451;22;20431;-62
2021/07/25 11:59:24;;;;;;;7.22;3.10;;;27.50;99.90;;;;;;6301777;22;20786;-61
2021/07/25 12:01:50;;;;;;;8.75;3.22;;;27.80;99.90;;;;;;6302627;22;20003;-61
2021/07/25 12:04:26;;;;;;;6.47;2.83;;;27.80;99.90;;;;;;6301745;22;20056;-61
2021/07/25 12:06:59;;;;;;;5.28;2.65;;;27.90;99.90;;;;;;6300843;22;20078;-64
2021/07/25 12:09:25;;;;;;;8.53;2.97;;;27.70;99.90;;;;;;6301290;22;20002;-61
2021/07/25 12:12:03;;;;;;;6.40;2.95;;;28.30;99.90;;;;;;6301238;22;19999;-62
2021/07/25 12:14:30;;;;;;;4.68;2.10;;;28.40;99.90;;;;;;6304767;22;20151;-62
2021/07/25 12:16:56;;;;;;;8.43;2.17;;;28.10;99.90;;;;;;6301727;22;19999;-59
2021/07/25 12:19:22;;;;;;;5.63;1.98;;;28.30;99.90;;;;;;6300753;22;20080;-61
2021/07/25 12:22:02;;;;;;;4.13;2.03;;;28.20;99.90;;;;;;6300610;22;20007;-62
2021/07/25 12:24:30;;;;;;;11.50;2.50;;;28.00;99.90;;;;;;6301087;22;19999;-62
2021/07/25 12:26:57;;;;;;;3.55;2.42;;;27.50;99.90;;;;;;6298234;22;20009;-62
2021/07/25 12:29:40;;;;;;;12.98;2.58;;;27.70;99.90;;;;;;6299352;22;20003;-62
2021/07/25 12:32:25;;;;;;;3.38;1.67;;;27.80;99.90;;;;;;6301257;22;19999;-61
2021/07/25 12:35:11;;;;;;;5.18;2.33;;;28.10;99.90;;;;;;6300807;22;20003;-62
2021/07/25 12:37:54;;;;;;;2.80;1.90;;;28.10;99.90;;;;;;6303446;22;20011;-61
2021/07/25 12:40:27;;;;;;;9.02;2.13;;;28.20;99.90;;;;;;6300910;22;20014;-62
2021/07/25 12:42:56;;;;;;;5.30;2.55;;;28.60;99.90;;;;;;6300316;22;20358;-62